Time;durP1;ratioP1;P1;durP2;ratioP2;P2;SDS_P1;SDS_P2;PMS_P1;PMS_P2;Temp;Humidity;BMP_temperature;BMP_pressure;BME280_temperature;BME280_humidity;BME280_pressure;Samples;Min_cycle;Max_cycle;Signal;HPM_P1;HPM_P2
2023/07/08 00:01:13;;;;;;;2.58;1.13;;;19.70;87.50;;;;;;5048648;28;20044;-71
2023/07/08 00:03:39;;;;;;;4.75;1.20;;;19.70;87.80;;;;;;5050506;28;20045;-71
2023/07/08 00:06:04;;;;;;;5.05;1.52;;;19.60;88.00;;;;;;5052103;28;20084;-71
2023/07/08 00:08:30;;;;;;;3.63;1.42;;;19.60;88.10;;;;;;5032675;28;20033;-72
2023/07/08 00:10:55;;;;;;;3.90;1.40;;;19.60;88.30;;;;;;5054205;28;20486;-71
2023/07/08 00:13:21;;;;;;;3.55;1.20;;;19.60;88.70;;;;;;5034527;28;20116;-71
2023/07/08 00:15:46;;;;;;;2.67;1.02;;;19.50;89.00;;;;;;5054065;28;20025;-71
2023/07/08 00:18:15;;;;;;;3.75;1.02;;;19.50;89.20;;;;;;5053963;28;20029;-71
2023/07/08 00:20:45;;;;;;;3.08;1.35;;;19.50;89.50;;;;;;5036678;28;20482;-71
2023/07/08 00:23:10;;;;;;;2.42;1.10;;;19.50;89.60;;;;;;5035940;28;20041;-71
2023/07/08 00:25:37;;;;;;;2.80;1.27;;;19.40;89.70;;;;;;5053965;28;20024;-71
2023/07/08 00:28:13;;;;;;;3.15;1.00;;;19.40;90.00;;;;;;5053647;28;20025;-71
2023/07/08 00:30:39;;;;;;;3.90;1.27;;;19.40;90.10;;;;;;5053650;28;20021;-71
2023/07/08 00:33:06;;;;;;;3.03;1.15;;;19.40;90.10;;;;;;5054253;28;20040;-71
2023/07/08 00:35:37;;;;;;;3.83;1.35;;;19.40;90.20;;;;;;5054414;28;20017;-71
2023/07/08 00:38:12;;;;;;;3.15;1.45;;;19.30;90.40;;;;;;5053280;28;20045;-71
2023/07/08 00:40:48;;;;;;;3.20;1.70;;;19.30;90.60;;;;;;5053892;28;20025;-71
2023/07/08 00:43:14;;;;;;;4.25;1.02;;;19.20;90.70;;;;;;5053836;28;20070;-71
2023/07/08 00:45:58;;;;;;;4.45;1.10;;;19.20;91.00;;;;;;5059132;28;20028;-71
2023/07/08 00:48:31;;;;;;;2.42;1.25;;;19.20;91.10;;;;;;5045902;28;20577;-71
2023/07/08 00:50:57;;;;;;;2.63;1.17;;;19.10;91.50;;;;;;5048646;28;20033;-73
2023/07/08 00:53:32;;;;;;;2.47;0.98;;;19.10;91.60;;;;;;5045511;28;20024;-71
2023/07/08 00:56:18;;;;;;;1.95;1.00;;;19.10;91.80;;;;;;5048240;28;20155;-72
2023/07/08 00:58:50;;;;;;;4.65;1.52;;;19.10;92.00;;;;;;5053764;28;20168;-72
2023/07/08 01:01:17;;;;;;;2.67;1.08;;;19.00;92.30;;;;;;5033266;28;20029;-71
2023/07/08 01:03:54;;;;;;;5.40;1.50;;;19.00;92.30;;;;;;5050526;28;20033;-71
2023/07/08 01:06:21;;;;;;;2.60;0.90;;;19.00;92.40;;;;;;5050849;28;20037;-71
2023/07/08 01:08:52;;;;;;;2.38;1.00;;;18.90;92.60;;;;;;5049989;28;20512;-71
2023/07/08 01:11:21;;;;;;;3.65;1.10;;;18.90;92.70;;;;;;5052450;28;20043;-71
2023/07/08 01:13:48;;;;;;;3.33;1.05;;;18.90;93.00;;;;;;5051183;28;20033;-71
2023/07/08 01:16:15;;;;;;;7.25;1.00;;;18.80;93.20;;;;;;5050359;28;20115;-71
2023/07/08 01:18:41;;;;;;;2.95;1.35;;;18.80;93.30;;;;;;5053265;28;20029;-71
2023/07/08 01:21:37;;;;;;;3.88;0.90;;;18.70;93.40;;;;;;5050658;28;20028;-71
2023/07/08 01:24:07;;;;;;;2.15;1.20;;;18.80;93.60;;;;;;5041908;28;20160;-71
2023/07/08 01:26:35;;;;;;;2.97;1.00;;;18.70;93.80;;;;;;5049735;28;20029;-71
2023/07/08 01:29:02;;;;;;;2.60;1.23;;;18.70;94.00;;;;;;5050715;28;20037;-71
2023/07/08 01:31:28;;;;;;;3.60;1.05;;;18.60;94.20;;;;;;5051942;28;20025;-71
2023/07/08 01:33:54;;;;;;;3.00;1.00;;;18.60;94.40;;;;;;5049708;28;20029;-71
2023/07/08 01:36:20;;;;;;;3.38;1.45;;;18.60;94.60;;;;;;5052239;28;20036;-71
2023/07/08 01:38:46;;;;;;;4.43;1.48;;;18.60;94.90;;;;;;5050005;28;20122;-71
2023/07/08 01:41:13;;;;;;;2.75;1.40;;;18.50;95.10;;;;;;5039584;28;20029;-71
2023/07/08 01:43:38;;;;;;;2.97;1.67;;;18.50;95.20;;;;;;5038463;28;20116;-71
2023/07/08 01:46:10;;;;;;;4.10;1.70;;;18.40;95.40;;;;;;5041675;28;20103;-72
2023/07/08 01:48:39;;;;;;;3.65;1.63;;;18.40;95.60;;;;;;5035703;28;20100;-71
2023/07/08 01:51:07;;;;;;;3.65;1.33;;;18.40;95.80;;;;;;5048627;28;20029;-71
2023/07/08 01:53:38;;;;;;;2.95;1.45;;;18.40;95.90;;;;;;5050050;28;20075;-71
2023/07/08 01:56:04;;;;;;;3.80;1.33;;;18.40;96.20;;;;;;5033702;28;20568;-71
2023/07/08 01:58:30;;;;;;;4.25;1.40;;;18.40;96.40;;;;;;5050441;28;20399;-71
2023/07/08 02:00:55;;;;;;;3.75;1.30;;;18.30;96.70;;;;;;5042949;28;20032;-71
2023/07/08 02:03:22;;;;;;;3.00;1.20;;;18.30;96.90;;;;;;5049782;28;20099;-71
2023/07/08 02:05:47;;;;;;;2.92;1.27;;;18.20;97.10;;;;;;5050980;28;20065;-71
2023/07/08 02:08:13;;;;;;;3.33;1.30;;;18.20;97.40;;;;;;5051070;28;20064;-71
2023/07/08 02:10:41;;;;;;;2.72;1.15;;;18.10;97.60;;;;;;5047065;28;20032;-70
2023/07/08 02:13:06;;;;;;;2.63;1.05;;;18.10;97.90;;;;;;5049029;28;20033;-71
2023/07/08 02:15:32;;;;;;;4.15;1.50;;;18.10;98.30;;;;;;5050547;28;20080;-71
2023/07/08 02:17:57;;;;;;;3.80;1.50;;;18.00;98.60;;;;;;5047231;28;20048;-70
2023/07/08 02:20:23;;;;;;;4.78;1.20;;;18.00;98.80;;;;;;5050931;28;20029;-70
2023/07/08 02:22:49;;;;;;;3.22;1.27;;;18.00;99.10;;;;;;5051323;28;20438;-70
2023/07/08 02:25:15;;;;;;;2.90;1.42;;;18.00;99.40;;;;;;5044861;28;20022;-71
2023/07/08 02:27:41;;;;;;;3.00;1.30;;;17.90;99.60;;;;;;5041871;28;20359;-71
2023/07/08 02:30:08;;;;;;;5.80;1.70;;;17.80;99.90;;;;;;5042838;28;20112;-71
2023/07/08 02:32:35;;;;;;;4.38;1.77;;;17.80;99.90;;;;;;5025594;28;20039;-71
2023/07/08 02:35:05;;;;;;;3.22;1.52;;;17.80;99.90;;;;;;5051063;28;20017;-71
2023/07/08 02:37:30;;;;;;;2.70;1.00;;;17.70;99.90;;;;;;5051027;28;20525;-70
2023/07/08 02:39:56;;;;;;;2.30;1.35;;;17.70;99.90;;;;;;5050797;28;20029;-71
2023/07/08 02:42:21;;;;;;;5.70;1.90;;;17.60;99.90;;;;;;5051516;28;20033;-70
2023/07/08 02:44:47;;;;;;;3.40;1.42;;;17.60;99.90;;;;;;5052078;28;20418;-70
2023/07/08 02:47:12;;;;;;;2.92;1.20;;;17.50;99.90;;;;;;5051019;28;20271;-71
2023/07/08 02:49:38;;;;;;;4.00;1.02;;;17.60;99.90;;;;;;5051300;28;20024;-71
2023/07/08 02:52:04;;;;;;;4.25;2.00;;;17.50;99.90;;;;;;5049948;28;20379;-71
2023/07/08 02:54:29;;;;;;;3.13;1.23;;;17.50;99.90;;;;;;5051280;28;20391;-71
2023/07/08 02:56:55;;;;;;;4.07;1.23;;;17.50;99.90;;;;;;5033188;28;20466;-70
2023/07/08 02:59:20;;;;;;;3.30;1.42;;;17.50;99.90;;;;;;5051154;28;20548;-70
2023/07/08 03:01:46;;;;;;;3.15;1.35;;;17.50;99.90;;;;;;5051768;28;20027;-71
2023/07/08 03:04:13;;;;;;;3.42;1.20;;;17.40;99.90;;;;;;5050686;28;20029;-70
2023/07/08 03:06:50;;;;;;;2.28;1.20;;;17.40;99.90;;;;;;5051292;28;20033;-71
2023/07/08 03:09:17;;;;;;;3.35;1.13;;;17.40;99.90;;;;;;5037330;28;20037;-71
2023/07/08 03:11:43;;;;;;;3.60;1.63;;;17.30;99.90;;;;;;5050589;28;20056;-71
2023/07/08 03:14:08;;;;;;;5.00;1.33;;;17.30;99.90;;;;;;5050501;28;20065;-71
2023/07/08 03:16:34;;;;;;;4.65;1.88;;;17.30;99.90;;;;;;5048083;28;20025;-71
2023/07/08 03:18:59;;;;;;;3.08;1.63;;;17.30;99.90;;;;;;5029875;28;20029;-71
2023/07/08 03:21:25;;;;;;;4.22;1.75;;;17.20;99.90;;;;;;5048305;28;20033;-70
2023/07/08 03:23:51;;;;;;;3.00;1.60;;;17.20;99.90;;;;;;5048338;28;20494;-70
2023/07/08 03:26:20;;;;;;;3.42;1.50;;;17.20;99.90;;;;;;5031683;28;20052;-71
2023/07/08 03:28:47;;;;;;;3.17;1.70;;;17.20;99.90;;;;;;5050243;28;20028;-70
2023/07/08 03:31:13;;;;;;;3.22;1.88;;;17.20;99.90;;;;;;5046796;28;20351;-70
2023/07/08 03:33:38;;;;;;;3.15;1.38;;;17.20;99.90;;;;;;5045955;28;20032;-70
2023/07/08 03:36:10;;;;;;;5.38;1.30;;;17.10;99.90;;;;;;5032319;28;20029;-70
2023/07/08 03:38:35;;;;;;;3.17;1.27;;;17.10;99.90;;;;;;5049550;28;20151;-71
2023/07/08 03:41:01;;;;;;;3.67;1.58;;;17.00;99.90;;;;;;5048976;28;20028;-71
2023/07/08 03:43:26;;;;;;;3.13;1.30;;;17.10;99.90;;;;;;5049974;28;20071;-70
2023/07/08 03:45:52;;;;;;;4.57;1.60;;;17.00;99.90;;;;;;5049555;28;20025;-71
2023/07/08 03:48:17;;;;;;;3.58;1.52;;;17.00;99.90;;;;;;5049552;28;20040;-70
2023/07/08 03:50:43;;;;;;;3.33;1.65;;;17.00;99.90;;;;;;5045746;28;20143;-71
2023/07/08 03:53:09;;;;;;;3.20;1.63;;;17.00;99.90;;;;;;5044562;28;20033;-70
2023/07/08 03:55:34;;;;;;;2.60;1.48;;;17.00;99.90;;;;;;5049285;28;20458;-70
2023/07/08 03:58:00;;;;;;;3.58;1.45;;;17.00;99.90;;;;;;5050275;28;20036;-71
2023/07/08 04:00:25;;;;;;;4.35;2.53;;;16.90;99.90;;;;;;5046646;28;20104;-71
2023/07/08 04:02:51;;;;;;;4.35;1.75;;;17.00;99.90;;;;;;5050273;28;20041;-70
2023/07/08 04:05:19;;;;;;;5.10;2.30;;;17.00;99.90;;;;;;5045368;28;20036;-71
2023/07/08 04:07:45;;;;;;;3.95;1.75;;;17.00;99.90;;;;;;5038479;28;20383;-71
2023/07/08 04:10:12;;;;;;;2.75;1.50;;;17.00;99.90;;;;;;5048188;28;20028;-71
2023/07/08 04:12:39;;;;;;;5.43;2.70;;;17.00;99.90;;;;;;5049721;28;20022;-71
2023/07/08 04:15:08;;;;;;;3.10;1.95;;;17.00;99.90;;;;;;5046487;28;20025;-71
2023/07/08 04:17:36;;;;;;;5.80;2.08;;;17.00;99.90;;;;;;5050556;28;20032;-71
2023/07/08 04:20:03;;;;;;;4.32;2.00;;;17.00;99.90;;;;;;5046388;28;20029;-71
2023/07/08 04:22:29;;;;;;;4.57;2.00;;;17.00;99.90;;;;;;5040431;28;20075;-71
2023/07/08 04:24:55;;;;;;;4.82;2.17;;;17.10;99.90;;;;;;5029932;28;20033;-71
2023/07/08 04:27:20;;;;;;;3.58;2.00;;;17.00;99.90;;;;;;5049634;28;20445;-71
2023/07/08 04:29:46;;;;;;;4.88;1.95;;;17.10;99.90;;;;;;5050306;28;20432;-71
2023/07/08 04:32:11;;;;;;;3.60;1.90;;;17.10;99.90;;;;;;5048859;28;20047;-71
2023/07/08 04:34:37;;;;;;;4.13;2.13;;;17.10;99.90;;;;;;5048801;28;20033;-71
2023/07/08 04:37:04;;;;;;;3.58;2.10;;;17.10;99.90;;;;;;5047133;28;20076;-71
2023/07/08 04:39:30;;;;;;;7.05;1.85;;;17.20;99.90;;;;;;5032132;28;20029;-71
2023/07/08 04:41:56;;;;;;;5.03;2.40;;;17.20;99.90;;;;;;5047920;28;20041;-71
2023/07/08 04:44:22;;;;;;;3.95;1.92;;;17.20;99.90;;;;;;5047051;28;20032;-71
2023/07/08 04:46:52;;;;;;;4.05;1.90;;;17.20;99.90;;;;;;5047710;28;20029;-71
2023/07/08 04:49:18;;;;;;;4.32;1.83;;;17.20;99.90;;;;;;5044692;28;20029;-71
2023/07/08 04:51:44;;;;;;;4.38;2.38;;;17.30;99.90;;;;;;5048933;28;20021;-71
2023/07/08 04:54:10;;;;;;;3.42;2.10;;;17.40;99.90;;;;;;5042160;28;20029;-71
2023/07/08 04:56:43;;;;;;;4.32;2.28;;;17.40;99.90;;;;;;5041441;28;20398;-71
2023/07/08 04:59:13;;;;;;;5.20;2.00;;;17.50;99.90;;;;;;5034353;28;20454;-71
2023/07/08 05:01:40;;;;;;;5.60;2.10;;;17.70;99.90;;;;;;5051595;28;20124;-71
2023/07/08 05:04:06;;;;;;;8.13;2.40;;;18.00;99.90;;;;;;5049900;28;20478;-71
2023/07/08 05:06:33;;;;;;;2.88;1.45;;;18.30;99.90;;;;;;5033258;28;20160;-71
2023/07/08 05:08:59;;;;;;;3.30;1.73;;;18.60;99.90;;;;;;5052147;28;20044;-70
2023/07/08 05:11:25;;;;;;;5.90;2.10;;;18.90;99.90;;;;;;5053470;28;20502;-71
2023/07/08 05:13:51;;;;;;;3.17;1.55;;;19.20;99.90;;;;;;5052344;28;20092;-70
2023/07/08 05:16:16;;;;;;;5.80;1.60;;;19.40;99.90;;;;;;5050855;28;20060;-70
2023/07/08 05:18:42;;;;;;;4.35;1.48;;;19.60;99.90;;;;;;5052008;28;20472;-71
2023/07/08 05:21:09;;;;;;;3.95;2.30;;;19.80;99.90;;;;;;5048884;28;20021;-70
2023/07/08 05:23:34;;;;;;;4.65;1.85;;;20.00;99.90;;;;;;5050965;28;20051;-70
2023/07/08 05:26:04;;;;;;;3.80;1.70;;;20.30;99.90;;;;;;5052705;28;20021;-70
2023/07/08 05:28:30;;;;;;;4.38;1.77;;;20.50;99.90;;;;;;5047367;28;20124;-70
2023/07/08 05:30:59;;;;;;;6.22;1.80;;;20.70;99.90;;;;;;5032817;28;20155;-70
2023/07/08 05:33:27;;;;;;;3.53;1.92;;;20.90;99.90;;;;;;5045595;28;20029;-70
2023/07/08 05:35:53;;;;;;;5.53;1.70;;;21.00;99.90;;;;;;5032221;28;20112;-71
2023/07/08 05:38:19;;;;;;;4.63;1.73;;;21.20;99.90;;;;;;5051250;28;20045;-70
2023/07/08 05:40:49;;;;;;;2.63;1.67;;;21.30;99.90;;;;;;5035356;28;20466;-71
2023/07/08 05:43:16;;;;;;;4.90;2.30;;;21.60;99.90;;;;;;5034702;28;20033;-72
2023/07/08 05:45:42;;;;;;;5.88;2.00;;;21.80;99.90;;;;;;5048767;28;20024;-69
2023/07/08 05:48:07;;;;;;;4.88;1.77;;;22.00;99.60;;;;;;5050591;28;20052;-69
2023/07/08 05:50:33;;;;;;;3.25;1.88;;;22.10;98.80;;;;;;5032056;28;20029;-69
2023/07/08 05:52:58;;;;;;;2.80;1.42;;;22.10;97.90;;;;;;5052353;28;20037;-69
2023/07/08 05:55:24;;;;;;;2.50;1.55;;;22.10;97.60;;;;;;5051982;28;20059;-69
2023/07/08 05:57:49;;;;;;;4.07;2.05;;;22.10;97.10;;;;;;5051154;28;20490;-69
2023/07/08 06:00:15;;;;;;;5.20;1.88;;;22.00;97.00;;;;;;5052673;28;20052;-69
2023/07/08 06:02:40;;;;;;;4.10;1.48;;;21.90;96.90;;;;;;5052122;28;20127;-69
2023/07/08 06:05:06;;;;;;;6.28;2.00;;;22.00;96.70;;;;;;5047270;28;20056;-69
2023/07/08 06:07:32;;;;;;;2.25;1.60;;;21.90;96.70;;;;;;5043016;28;20033;-69
2023/07/08 06:09:59;;;;;;;3.17;1.20;;;21.90;96.80;;;;;;5052010;28;20025;-70
2023/07/08 06:12:25;;;;;;;2.75;2.03;;;21.90;96.80;;;;;;5044171;28;20450;-70
2023/07/08 06:14:50;;;;;;;4.28;2.08;;;21.90;96.60;;;;;;5047018;28;20060;-71
2023/07/08 06:17:17;;;;;;;4.32;1.73;;;21.80;96.60;;;;;;5052295;28;20032;-71
2023/07/08 06:19:43;;;;;;;3.90;1.60;;;21.80;96.50;;;;;;5051614;28;20032;-71
2023/07/08 06:22:09;;;;;;;2.45;1.60;;;21.80;96.50;;;;;;5045451;28;20076;-70
2023/07/08 06:24:34;;;;;;;4.22;1.58;;;21.90;96.70;;;;;;5050328;28;20029;-70
2023/07/08 06:27:00;;;;;;;3.42;1.63;;;21.90;96.50;;;;;;5051684;28;20086;-70
2023/07/08 06:29:26;;;;;;;4.28;1.80;;;22.00;96.40;;;;;;5052177;28;20029;-70
2023/07/08 06:31:51;;;;;;;11.90;1.58;;;22.00;96.30;;;;;;5051412;28;20065;-70
2023/07/08 06:34:19;;;;;;;5.03;1.55;;;22.00;96.40;;;;;;5034021;28;20390;-71
2023/07/08 06:36:44;;;;;;;4.43;1.80;;;22.10;96.40;;;;;;5029569;28;20036;-71
2023/07/08 06:39:11;;;;;;;2.92;1.35;;;22.20;96.50;;;;;;5050997;28;20025;-70
2023/07/08 06:41:37;;;;;;;3.55;1.50;;;22.30;96.20;;;;;;5051858;28;20029;-70
2023/07/08 06:44:03;;;;;;;4.47;1.65;;;22.40;96.20;;;;;;5049887;28;20047;-70
2023/07/08 06:46:29;;;;;;;4.45;1.70;;;22.50;96.00;;;;;;5036418;28;20529;-71
2023/07/08 06:48:55;;;;;;;4.47;1.52;;;22.60;95.60;;;;;;5050048;28;20044;-71
2023/07/08 06:51:21;;;;;;;2.95;1.20;;;22.60;95.30;;;;;;5052308;28;20135;-70
2023/07/08 06:53:46;;;;;;;5.50;1.60;;;22.60;95.30;;;;;;5051289;28;20055;-70
2023/07/08 06:56:12;;;;;;;3.10;1.58;;;22.70;95.20;;;;;;5047899;28;20021;-71
2023/07/08 06:58:37;;;;;;;2.72;1.50;;;22.80;95.00;;;;;;5052206;28;20033;-70
2023/07/08 07:01:03;;;;;;;4.55;2.00;;;22.90;94.90;;;;;;5052803;28;20039;-70
2023/07/08 07:03:29;;;;;;;2.70;1.52;;;23.00;94.60;;;;;;5044488;28;20037;-70
2023/07/08 07:05:55;;;;;;;3.70;1.45;;;23.10;94.60;;;;;;5066323;28;20013;-71
2023/07/08 07:08:20;;;;;;;3.30;1.65;;;23.20;94.50;;;;;;5044483;28;20060;-71
2023/07/08 07:10:46;;;;;;;5.07;1.77;;;23.20;94.60;;;;;;5049660;28;20368;-71
2023/07/08 07:13:12;;;;;;;3.13;1.48;;;23.30;94.40;;;;;;5050225;28;20032;-71
2023/07/08 07:15:37;;;;;;;3.67;1.50;;;23.40;94.60;;;;;;5034133;28;20039;-71
2023/07/08 07:18:03;;;;;;;3.70;1.50;;;23.50;94.60;;;;;;5052023;28;20061;-71
2023/07/08 07:20:29;;;;;;;3.67;1.75;;;23.70;94.20;;;;;;5046747;28;20022;-72
2023/07/08 07:22:54;;;;;;;4.97;1.70;;;23.80;94.50;;;;;;5050018;28;20370;-72
2023/07/08 07:25:21;;;;;;;3.85;1.30;;;24.00;94.70;;;;;;5050077;28;20027;-72
2023/07/08 07:27:46;;;;;;;8.38;1.95;;;24.10;94.10;;;;;;5052060;28;20029;-72
2023/07/08 07:30:14;;;;;;;7.95;2.35;;;24.20;93.00;;;;;;5033796;28;20032;-72
2023/07/08 07:32:42;;;;;;;8.73;2.33;;;24.30;92.90;;;;;;5033755;28;20024;-72
2023/07/08 07:35:13;;;;;;;3.10;1.50;;;24.50;92.60;;;;;;5049049;28;20032;-72
2023/07/08 07:37:39;;;;;;;4.85;2.10;;;24.70;92.30;;;;;;5045550;28;20043;-72
2023/07/08 07:40:12;;;;;;;4.72;1.85;;;24.80;91.40;;;;;;5048365;28;20154;-72
2023/07/08 07:42:39;;;;;;;5.60;1.75;;;24.90;91.00;;;;;;5030559;28;20437;-72
2023/07/08 07:45:05;;;;;;;5.28;1.83;;;25.10;90.80;;;;;;5047129;28;20486;-72
2023/07/08 07:47:31;;;;;;;5.97;2.08;;;25.20;89.40;;;;;;5032766;28;20025;-72
2023/07/08 07:49:58;;;;;;;6.05;2.05;;;25.30;89.00;;;;;;5047718;28;20100;-72
2023/07/08 07:52:25;;;;;;;5.03;2.15;;;25.40;87.60;;;;;;5048687;28;20040;-72
2023/07/08 07:54:54;;;;;;;3.88;2.00;;;25.50;86.10;;;;;;5049866;28;20430;-72
2023/07/08 07:57:21;;;;;;;4.78;2.10;;;25.60;85.40;;;;;;5049158;28;20516;-72
2023/07/08 07:59:47;;;;;;;3.97;2.42;;;25.60;85.00;;;;;;5033297;28;20386;-72
2023/07/08 08:02:12;;;;;;;4.80;2.08;;;25.80;85.20;;;;;;5050094;28;20027;-72
2023/07/08 08:04:38;;;;;;;6.45;2.28;;;25.90;84.10;;;;;;5050726;28;20025;-72
2023/07/08 08:07:04;;;;;;;3.00;1.90;;;26.00;84.20;;;;;;5049528;28;20025;-72
2023/07/08 08:09:29;;;;;;;4.20;1.88;;;26.20;83.60;;;;;;5050339;28;20500;-72
2023/07/08 08:11:55;;;;;;;4.47;2.65;;;26.30;82.80;;;;;;5031940;28;20115;-72
2023/07/08 08:14:21;;;;;;;5.20;2.42;;;26.40;81.80;;;;;;5050349;28;20029;-72
2023/07/08 08:16:46;;;;;;;4.15;2.15;;;26.50;81.20;;;;;;5044968;28;20045;-72
2023/07/08 08:19:12;;;;;;;3.78;2.20;;;26.50;79.90;;;;;;5048808;28;20068;-73
2023/07/08 08:21:37;;;;;;;5.00;2.25;;;26.50;80.20;;;;;;5033145;28;20495;-72
2023/07/08 08:24:03;;;;;;;3.58;1.83;;;26.60;79.70;;;;;;5031823;28;20091;-73
2023/07/08 08:26:29;;;;;;;4.30;2.65;;;26.60;80.00;;;;;;5049569;28;20498;-72
2023/07/08 08:28:55;;;;;;;4.03;2.50;;;26.70;78.90;;;;;;5049804;28;20025;-73
2023/07/08 08:31:21;;;;;;;4.25;2.38;;;26.80;79.40;;;;;;5054387;28;20479;-73
2023/07/08 08:33:46;;;;;;;7.20;3.00;;;26.90;78.80;;;;;;5054590;28;20033;-73
2023/07/08 08:36:12;;;;;;;4.53;2.55;;;26.90;77.70;;;;;;5053014;28;20471;-72
2023/07/08 08:38:37;;;;;;;2.85;1.95;;;27.00;77.30;;;;;;5055325;28;20096;-72
2023/07/08 08:41:09;;;;;;;3.78;2.45;;;27.10;77.50;;;;;;5053945;28;20025;-73
2023/07/08 08:43:39;;;;;;;5.53;2.85;;;27.30;77.20;;;;;;5036360;28;20038;-72
2023/07/08 08:46:11;;;;;;;3.75;2.45;;;27.40;76.40;;;;;;5053693;28;20079;-72
2023/07/08 08:49:15;;;;;;;5.38;2.58;;;27.50;77.20;;;;;;5054007;28;20446;-72
2023/07/08 08:51:41;;;;;;;5.13;2.33;;;27.70;77.20;;;;;;5054151;28;20025;-72
2023/07/08 08:54:07;;;;;;;3.97;2.28;;;27.80;76.40;;;;;;5053398;28;20025;-72
2023/07/08 08:56:41;;;;;;;5.75;2.72;;;27.90;75.40;;;;;;5054261;28;20082;-72
2023/07/08 08:59:12;;;;;;;4.50;2.83;;;28.10;75.20;;;;;;5053144;28;20031;-72
2023/07/08 09:01:38;;;;;;;6.60;2.38;;;28.20;74.40;;;;;;5038811;28;20040;-73
2023/07/08 09:04:27;;;;;;;6.22;2.67;;;28.30;74.10;;;;;;5051440;28;20509;-72
2023/07/08 09:07:00;;;;;;;5.00;3.20;;;28.30;73.50;;;;;;5052257;28;20036;-72
2023/07/08 09:09:48;;;;;;;4.20;3.10;;;28.40;74.00;;;;;;5051800;28;20028;-73
2023/07/08 09:12:21;;;;;;;4.82;2.63;;;28.60;73.20;;;;;;5052023;28;20101;-72
2023/07/08 09:14:47;;;;;;;6.55;2.85;;;28.60;72.50;;;;;;5026405;28;20031;-72
2023/07/08 09:17:23;;;;;;;5.10;2.85;;;28.70;71.80;;;;;;5059904;28;20410;-72
2023/07/08 09:20:03;;;;;;;5.18;2.78;;;28.80;71.90;;;;;;5052967;28;20036;-72
2023/07/08 09:22:35;;;;;;;5.43;2.67;;;28.90;71.40;;;;;;5034409;28;20037;-72
2023/07/08 09:25:12;;;;;;;4.10;3.00;;;28.90;71.50;;;;;;5033610;28;20072;-72
2023/07/08 09:27:37;;;;;;;4.20;2.55;;;29.00;69.70;;;;;;5053089;28;20025;-72
2023/07/08 09:30:04;;;;;;;5.53;3.10;;;29.10;69.40;;;;;;5050884;28;20044;-73
2023/07/08 09:32:29;;;;;;;4.50;3.10;;;29.20;69.60;;;;;;5042680;28;20120;-72
2023/07/08 09:35:08;;;;;;;5.05;2.75;;;29.30;69.50;;;;;;5053019;28;20049;-72
2023/07/08 09:37:36;;;;;;;7.40;3.03;;;29.30;69.30;;;;;;5052039;28;20049;-73
2023/07/08 09:40:17;;;;;;;4.43;2.85;;;29.40;69.20;;;;;;5049635;28;20406;-73
2023/07/08 09:42:46;;;;;;;8.88;3.40;;;29.50;69.30;;;;;;5042856;28;20131;-72
2023/07/08 09:45:15;;;;;;;5.53;2.83;;;29.60;68.30;;;;;;5052169;28;20021;-73
2023/07/08 09:47:43;;;;;;;6.20;3.28;;;29.60;68.90;;;;;;5046411;28;20028;-72
2023/07/08 09:50:29;;;;;;;5.63;3.10;;;29.70;68.20;;;;;;5051426;28;20021;-73
2023/07/08 09:52:59;;;;;;;4.45;3.53;;;29.90;69.80;;;;;;5045996;28;20482;-72
2023/07/08 09:55:25;;;;;;;9.13;3.95;;;30.00;68.10;;;;;;5047757;28;20501;-72
2023/07/08 09:57:52;;;;;;;4.95;4.05;;;30.10;66.30;;;;;;5042649;28;20103;-73
2023/07/08 10:00:28;;;;;;;3.95;3.17;;;30.20;66.40;;;;;;5047507;28;20025;-73
2023/07/08 10:02:59;;;;;;;5.32;3.47;;;30.30;66.00;;;;;;5047213;28;20068;-73
2023/07/08 10:05:35;;;;;;;5.65;3.80;;;30.50;64.40;;;;;;5042534;28;20104;-72
2023/07/08 10:08:03;;;;;;;5.35;3.53;;;30.70;63.10;;;;;;5033692;28;20490;-74
2023/07/08 10:10:37;;;;;;;4.90;3.60;;;30.80;63.30;;;;;;5043822;28;20096;-73
2023/07/08 10:13:12;;;;;;;6.93;4.38;;;30.80;63.60;;;;;;5046027;28;20474;-73
2023/07/08 10:15:41;;;;;;;5.78;3.70;;;30.80;62.60;;;;;;5050706;28;20035;-73
2023/07/08 10:18:23;;;;;;;5.57;3.75;;;30.80;63.80;;;;;;5049980;28;20525;-72
2023/07/08 10:21:02;;;;;;;;;;;30.90;63.60;;;;;;5050008;28;20037;-73
2023/07/08 10:23:46;;;;;;;4.60;3.42;;;31.00;63.80;;;;;;5050150;28;20007;-73
2023/07/08 10:26:31;;;;;;;5.93;3.90;;;31.10;62.50;;;;;;5048637;28;20027;-73
2023/07/08 10:29:24;;;;;;;7.32;3.85;;;31.20;62.10;;;;;;5033533;28;20051;-73
2023/07/08 10:31:59;;;;;;;6.25;3.55;;;31.30;62.60;;;;;;5044127;28;20021;-73
2023/07/08 10:35:03;;;;;;;8.35;3.67;;;31.40;60.50;;;;;;5046659;28;20042;-73
2023/07/08 10:37:42;;;;;;;7.63;4.18;;;31.40;61.10;;;;;;5014714;28;20064;-72
2023/07/08 10:40:24;;;;;;;5.25;3.85;;;31.50;59.00;;;;;;5034388;28;20108;-72
2023/07/08 10:42:53;;;;;;;5.43;3.70;;;31.50;59.00;;;;;;5050170;28;20058;-72
2023/07/08 10:46:01;;;;;;;6.18;4.07;;;31.40;58.60;;;;;;5049344;28;20089;-72
2023/07/08 10:49:10;;;;;;;7.60;4.80;;;31.40;58.90;;;;;;4993035;28;20805;-71
2023/07/08 10:52:07;;;;;;;6.22;3.80;;;31.60;59.00;;;;;;5048487;28;20048;-72
2023/07/08 10:54:59;;;;;;;5.82;4.15;;;31.70;58.30;;;;;;5024790;28;20124;-71
2023/07/08 10:57:48;;;;;;;5.72;4.28;;;31.70;57.50;;;;;;5025836;28;20029;-72
2023/07/08 11:00:26;;;;;;;5.72;4.00;;;31.70;57.50;;;;;;5031956;28;20045;-71
2023/07/08 11:03:26;;;;;;;8.13;4.35;;;31.80;58.10;;;;;;5042179;28;20036;-72
2023/07/08 11:06:18;;;;;;;6.07;4.10;;;31.90;58.10;;;;;;5043190;28;20024;-72
2023/07/08 11:08:53;;;;;;;6.00;4.05;;;31.90;57.00;;;;;;5011505;28;20135;-72
2023/07/08 11:11:39;;;;;;;7.75;3.33;;;31.90;56.10;;;;;;5024809;28;20441;-72
2023/07/08 11:14:25;;;;;;;6.40;4.13;;;31.90;56.10;;;;;;5041635;28;20029;-72
2023/07/08 11:17:18;;;;;;;7.20;3.95;;;32.00;55.50;;;;;;5038746;28;22859;-73
2023/07/08 11:19:51;;;;;;;7.28;3.97;;;32.10;55.90;;;;;;5029965;28;20028;-73
2023/07/08 11:22:18;;;;;;;7.03;4.55;;;32.10;56.50;;;;;;5040955;28;20029;-73
2023/07/08 11:24:47;;;;;;;7.43;4.15;;;32.30;57.50;;;;;;5024596;28;20033;-72
2023/07/08 11:27:38;;;;;;;7.07;3.88;;;32.40;58.20;;;;;;5025034;28;20029;-72
2023/07/08 11:30:26;;;;;;;7.93;4.78;;;32.40;58.80;;;;;;5035922;28;20040;-72
2023/07/08 11:33:05;;;;;;;8.50;3.80;;;32.40;58.20;;;;;;5022151;28;20072;-72
2023/07/08 11:35:41;;;;;;;6.93;3.85;;;32.30;59.20;;;;;;5040538;28;20025;-72
2023/07/08 11:38:12;;;;;;;6.18;4.30;;;32.30;58.50;;;;;;5037543;28;20049;-72
2023/07/08 11:41:10;;;;;;;5.07;3.80;;;32.20;58.40;;;;;;5036403;28;20024;-72
2023/07/08 11:43:49;;;;;;;5.25;3.58;;;32.10;58.80;;;;;;5036707;28;20047;-71
2023/07/08 11:46:20;;;;;;;6.63;4.32;;;32.20;59.50;;;;;;5019108;28;20036;-72
2023/07/08 11:48:48;;;;;;;5.40;4.07;;;32.30;59.00;;;;;;5036137;28;20017;-73
2023/07/08 11:51:20;;;;;;;6.22;4.32;;;32.30;60.40;;;;;;5046145;28;20490;-72
2023/07/08 11:53:58;;;;;;;8.23;4.63;;;32.40;60.60;;;;;;5046043;28;20055;-72
2023/07/08 11:56:25;;;;;;;8.45;4.78;;;32.40;59.60;;;;;;5046272;28;20116;-72
2023/07/08 11:58:58;;;;;;;7.38;4.30;;;32.50;59.00;;;;;;5049155;28;20021;-72
2023/07/08 12:01:34;;;;;;;5.68;3.60;;;32.40;59.40;;;;;;5031284;28;20033;-72
2023/07/08 12:04:15;;;;;;;7.60;4.10;;;32.40;59.80;;;;;;5047957;28;20049;-73
2023/07/08 12:06:46;;;;;;;6.72;4.03;;;32.50;59.90;;;;;;5042774;28;20104;-72
2023/07/08 12:09:25;;;;;;;7.65;4.05;;;32.40;59.30;;;;;;5047248;28;20037;-72
2023/07/08 12:12:01;;;;;;;6.07;3.97;;;32.40;60.10;;;;;;5048778;28;20027;-72
2023/07/08 12:14:28;;;;;;;8.65;3.95;;;32.40;60.00;;;;;;5047463;28;20394;-73
2023/07/08 12:16:54;;;;;;;5.90;4.80;;;32.40;57.60;;;;;;5045333;28;20033;-72
2023/07/08 12:19:22;;;;;;;6.00;4.15;;;32.40;55.70;;;;;;5043704;28;20037;-72
2023/07/08 12:21:48;;;;;;;7.00;4.47;;;32.40;55.40;;;;;;5039054;28;20105;-72
2023/07/08 12:24:14;;;;;;;7.65;4.30;;;32.50;57.10;;;;;;5047447;28;20124;-72
2023/07/08 12:26:44;;;;;;;6.43;3.63;;;32.70;57.30;;;;;;5046621;28;20017;-72
2023/07/08 12:29:15;;;;;;;8.57;4.43;;;32.90;56.40;;;;;;5027493;28;20370;-72
2023/07/08 12:31:42;;;;;;;10.85;4.40;;;33.20;56.30;;;;;;5049641;28;20121;-71
2023/07/08 12:34:16;;;;;;;7.43;3.97;;;33.30;54.00;;;;;;5030138;28;20377;-71
2023/07/08 12:36:43;;;;;;;7.47;4.50;;;33.50;53.50;;;;;;5046430;28;20029;-72
2023/07/08 12:39:16;;;;;;;6.90;4.35;;;33.50;53.60;;;;;;5046358;28;20033;-72
2023/07/08 12:41:45;;;;;;;6.90;4.32;;;33.70;53.70;;;;;;5049014;28;20021;-72
2023/07/08 12:44:22;;;;;;;6.38;4.38;;;33.80;53.90;;;;;;5048885;28;20036;-72
2023/07/08 12:46:52;;;;;;;8.80;4.13;;;33.90;53.60;;;;;;5032965;28;20017;-72
2023/07/08 12:49:19;;;;;;;6.30;3.70;;;34.00;54.20;;;;;;5049491;28;20027;-72
2023/07/08 12:51:46;;;;;;;9.68;4.30;;;34.10;53.30;;;;;;5046927;28;20021;-72
2023/07/08 12:54:13;;;;;;;5.75;4.03;;;34.20;52.40;;;;;;5026937;28;20060;-72
2023/07/08 12:56:42;;;;;;;7.07;4.10;;;34.40;51.10;;;;;;5044131;28;20803;-72
2023/07/08 12:59:11;;;;;;;5.53;4.20;;;34.40;51.10;;;;;;5046145;28;20064;-72
2023/07/08 13:01:37;;;;;;;6.70;3.42;;;34.60;49.50;;;;;;5046913;28;20481;-72